sensor_id;sensor_type;location;lat;lon;timestamp;P1;durP1;ratioP1;P2;durP2;ratioP2
56457;SDS011;42360;42.918;12.366;2023-02-03T00:02:16;11.13;;;6.93;;
56457;SDS011;42360;42.918;12.366;2023-02-03T00:04:42;11.25;;;5.75;;
56457;SDS011;42360;42.918;12.366;2023-02-03T00:07:08;8.85;;;5.68;;
56457;SDS011;42360;42.918;12.366;2023-02-03T00:09:35;9.88;;;5.05;;
56457;SDS011;42360;42.918;12.366;2023-02-03T00:12:01;8.25;;;5.10;;
56457;SDS011;42360;42.918;12.366;2023-02-03T00:14:26;10.05;;;4.53;;
56457;SDS011;42360;42.918;12.366;2023-02-03T00:16:52;8.82;;;5.95;;
56457;SDS011;42360;42.918;12.366;2023-02-03T00:19:17;12.93;;;6.90;;
56457;SDS011;42360;42.918;12.366;2023-02-03T00:21:43;14.23;;;7.97;;
56457;SDS011;42360;42.918;12.366;2023-02-03T00:24:09;13.60;;;8.52;;
56457;SDS011;42360;42.918;12.366;2023-02-03T00:26:34;13.38;;;7.68;;
56457;SDS011;42360;42.918;12.366;2023-02-03T00:29:05;14.93;;;7.95;;
56457;SDS011;42360;42.918;12.366;2023-02-03T00:31:31;11.32;;;8.20;;
56457;SDS011;42360;42.918;12.366;2023-02-03T00:33:56;10.57;;;7.70;;
56457;SDS011;42360;42.918;12.366;2023-02-03T00:36:22;16.42;;;8.88;;
56457;SDS011;42360;42.918;12.366;2023-02-03T00:38:49;14.25;;;8.32;;
56457;SDS011;42360;42.918;12.366;2023-02-03T00:41:15;15.32;;;8.20;;
56457;SDS011;42360;42.918;12.366;2023-02-03T00:43:41;10.52;;;6.95;;
56457;SDS011;42360;42.918;12.366;2023-02-03T00:46:07;16.73;;;8.02;;
56457;SDS011;42360;42.918;12.366;2023-02-03T00:48:32;15.45;;;9.18;;
56457;SDS011;42360;42.918;12.366;2023-02-03T00:50:58;12.07;;;6.78;;
56457;SDS011;42360;42.918;12.366;2023-02-03T00:53:24;12.18;;;7.10;;
56457;SDS011;42360;42.918;12.366;2023-02-03T00:55:49;14.43;;;8.18;;
56457;SDS011;42360;42.918;12.366;2023-02-03T00:58:16;10.85;;;6.57;;
56457;SDS011;42360;42.918;12.366;2023-02-03T01:00:41;11.48;;;6.57;;
56457;SDS011;42360;42.918;12.366;2023-02-03T01:03:07;8.52;;;5.40;;
56457;SDS011;42360;42.918;12.366;2023-02-03T01:05:33;9.60;;;6.10;;
56457;SDS011;42360;42.918;12.366;2023-02-03T01:07:59;10.52;;;5.82;;
56457;SDS011;42360;42.918;12.366;2023-02-03T01:10:25;12.05;;;7.15;;
56457;SDS011;42360;42.918;12.366;2023-02-03T01:12:51;13.60;;;6.55;;
56457;SDS011;42360;42.918;12.366;2023-02-03T01:15:16;14.00;;;7.35;;
56457;SDS011;42360;42.918;12.366;2023-02-03T01:17:42;16.27;;;7.10;;
56457;SDS011;42360;42.918;12.366;2023-02-03T01:20:08;10.60;;;7.05;;
56457;SDS011;42360;42.918;12.366;2023-02-03T01:22:36;10.27;;;6.85;;
56457;SDS011;42360;42.918;12.366;2023-02-03T01:25:02;13.18;;;6.80;;
56457;SDS011;42360;42.918;12.366;2023-02-03T01:27:27;10.50;;;6.65;;
56457;SDS011;42360;42.918;12.366;2023-02-03T01:29:53;11.60;;;7.10;;
56457;SDS011;42360;42.918;12.366;2023-02-03T01:32:19;12.32;;;7.72;;
56457;SDS011;42360;42.918;12.366;2023-02-03T01:34:44;11.27;;;7.00;;
56457;SDS011;42360;42.918;12.366;2023-02-03T01:37:10;9.75;;;6.30;;
56457;SDS011;42360;42.918;12.366;2023-02-03T01:39:35;11.55;;;6.85;;
56457;SDS011;42360;42.918;12.366;2023-02-03T01:42:01;10.30;;;7.10;;
56457;SDS011;42360;42.918;12.366;2023-02-03T01:44:33;11.60;;;7.40;;
56457;SDS011;42360;42.918;12.366;2023-02-03T01:46:59;10.15;;;6.63;;
56457;SDS011;42360;42.918;12.366;2023-02-03T01:49:27;12.75;;;6.68;;
56457;SDS011;42360;42.918;12.366;2023-02-03T01:51:54;9.95;;;6.43;;
56457;SDS011;42360;42.918;12.366;2023-02-03T01:54:30;8.88;;;5.97;;
56457;SDS011;42360;42.918;12.366;2023-02-03T01:57:00;9.05;;;5.15;;
56457;SDS011;42360;42.918;12.366;2023-02-03T01:59:28;8.95;;;4.95;;
56457;SDS011;42360;42.918;12.366;2023-02-03T02:01:54;11.20;;;6.03;;
56457;SDS011;42360;42.918;12.366;2023-02-03T02:04:21;9.65;;;5.80;;
56457;SDS011;42360;42.918;12.366;2023-02-03T02:06:49;9.13;;;5.70;;
56457;SDS011;42360;42.918;12.366;2023-02-03T02:09:15;11.93;;;5.80;;
56457;SDS011;42360;42.918;12.366;2023-02-03T02:11:41;9.80;;;5.75;;
56457;SDS011;42360;42.918;12.366;2023-02-03T02:14:07;8.95;;;5.90;;
56457;SDS011;42360;42.918;12.366;2023-02-03T02:16:36;9.48;;;5.55;;
56457;SDS011;42360;42.918;12.366;2023-02-03T02:21:58;9.98;;;6.20;;
56457;SDS011;42360;42.918;12.366;2023-02-03T02:29:56;9.15;;;5.85;;
56457;SDS011;42360;42.918;12.366;2023-02-03T02:33:07;9.57;;;4.88;;
56457;SDS011;42360;42.918;12.366;2023-02-03T02:35:31;9.40;;;6.32;;
56457;SDS011;42360;42.918;12.366;2023-02-03T02:38:12;7.00;;;5.35;;
56457;SDS011;42360;42.918;12.366;2023-02-03T02:40:53;7.45;;;4.85;;
56457;SDS011;42360;42.918;12.366;2023-02-03T02:43:34;11.57;;;5.20;;
56457;SDS011;42360;42.918;12.366;2023-02-03T02:46:11;9.70;;;5.40;;
56457;SDS011;42360;42.918;12.366;2023-02-03T02:51:08;8.35;;;4.95;;
56457;SDS011;42360;42.918;12.366;2023-02-03T02:53:37;6.05;;;4.85;;
56457;SDS011;42360;42.918;12.366;2023-02-03T02:56:06;8.13;;;5.13;;
56457;SDS011;42360;42.918;12.366;2023-02-03T02:58:36;10.10;;;5.43;;
56457;SDS011;42360;42.918;12.366;2023-02-03T03:03:29;7.07;;;4.97;;
56457;SDS011;42360;42.918;12.366;2023-02-03T03:06:02;10.95;;;4.72;;
56457;SDS011;42360;42.918;12.366;2023-02-03T03:08:33;7.53;;;4.70;;
56457;SDS011;42360;42.918;12.366;2023-02-03T03:11:02;8.02;;;5.25;;
56457;SDS011;42360;42.918;12.366;2023-02-03T03:13:30;9.13;;;5.45;;
56457;SDS011;42360;42.918;12.366;2023-02-03T03:15:57;7.65;;;5.25;;
56457;SDS011;42360;42.918;12.366;2023-02-03T03:20:56;8.52;;;5.80;;
56457;SDS011;42360;42.918;12.366;2023-02-03T03:23:30;6.82;;;4.82;;
56457;SDS011;42360;42.918;12.366;2023-02-03T03:26:14;5.90;;;5.05;;
56457;SDS011;42360;42.918;12.366;2023-02-03T03:28:47;10.73;;;5.75;;
56457;SDS011;42360;42.918;12.366;2023-02-03T03:31:16;10.00;;;5.60;;
56457;SDS011;42360;42.918;12.366;2023-02-03T03:33:42;11.00;;;5.80;;
56457;SDS011;42360;42.918;12.366;2023-02-03T03:36:43;7.63;;;5.95;;
56457;SDS011;42360;42.918;12.366;2023-02-03T03:39:11;9.50;;;5.30;;
56457;SDS011;42360;42.918;12.366;2023-02-03T03:44:09;10.15;;;5.25;;
56457;SDS011;42360;42.918;12.366;2023-02-03T03:46:42;7.15;;;5.22;;
56457;SDS011;42360;42.918;12.366;2023-02-03T03:49:13;8.32;;;5.40;;
56457;SDS011;42360;42.918;12.366;2023-02-03T03:51:41;9.75;;;5.43;;
56457;SDS011;42360;42.918;12.366;2023-02-03T03:54:15;8.77;;;6.40;;
56457;SDS011;42360;42.918;12.366;2023-02-03T03:56:49;7.32;;;5.35;;
56457;SDS011;42360;42.918;12.366;2023-02-03T03:59:19;11.30;;;6.85;;
56457;SDS011;42360;42.918;12.366;2023-02-03T04:01:46;10.23;;;7.30;;
56457;SDS011;42360;42.918;12.366;2023-02-03T04:04:12;10.25;;;6.22;;
56457;SDS011;42360;42.918;12.366;2023-02-03T04:06:39;9.38;;;7.30;;
56457;SDS011;42360;42.918;12.366;2023-02-03T04:09:05;9.80;;;6.88;;
56457;SDS011;42360;42.918;12.366;2023-02-03T04:11:31;10.13;;;7.10;;
56457;SDS011;42360;42.918;12.366;2023-02-03T04:14:15;10.52;;;7.78;;
56457;SDS011;42360;42.918;12.366;2023-02-03T04:16:40;10.15;;;7.63;;
56457;SDS011;42360;42.918;12.366;2023-02-03T04:19:06;7.97;;;6.32;;
56457;SDS011;42360;42.918;12.366;2023-02-03T04:21:32;8.07;;;5.72;;
56457;SDS011;42360;42.918;12.366;2023-02-03T04:23:57;10.18;;;7.32;;
56457;SDS011;42360;42.918;12.366;2023-02-03T04:26:23;11.07;;;7.43;;
56457;SDS011;42360;42.918;12.366;2023-02-03T04:28:49;11.48;;;7.75;;
56457;SDS011;42360;42.918;12.366;2023-02-03T04:31:15;9.10;;;7.05;;
56457;SDS011;42360;42.918;12.366;2023-02-03T04:33:40;11.10;;;8.20;;
56457;SDS011;42360;42.918;12.366;2023-02-03T04:36:06;13.43;;;7.43;;
56457;SDS011;42360;42.918;12.366;2023-02-03T04:38:32;11.32;;;7.07;;
56457;SDS011;42360;42.918;12.366;2023-02-03T04:40:58;9.05;;;6.53;;
56457;SDS011;42360;42.918;12.366;2023-02-03T04:43:23;9.73;;;6.90;;
56457;SDS011;42360;42.918;12.366;2023-02-03T04:45:49;9.05;;;6.20;;
56457;SDS011;42360;42.918;12.366;2023-02-03T04:48:14;8.75;;;5.70;;
56457;SDS011;42360;42.918;12.366;2023-02-03T04:50:40;5.85;;;4.47;;
56457;SDS011;42360;42.918;12.366;2023-02-03T04:53:06;8.10;;;4.60;;
56457;SDS011;42360;42.918;12.366;2023-02-03T04:55:34;9.63;;;4.05;;
56457;SDS011;42360;42.918;12.366;2023-02-03T04:58:00;10.10;;;5.60;;
56457;SDS011;42360;42.918;12.366;2023-02-03T05:00:26;9.43;;;5.20;;
56457;SDS011;42360;42.918;12.366;2023-02-03T05:02:53;8.63;;;4.75;;
56457;SDS011;42360;42.918;12.366;2023-02-03T05:05:19;8.90;;;5.05;;
56457;SDS011;42360;42.918;12.366;2023-02-03T05:07:45;11.30;;;5.65;;
56457;SDS011;42360;42.918;12.366;2023-02-03T05:10:11;9.05;;;6.80;;
56457;SDS011;42360;42.918;12.366;2023-02-03T05:12:36;10.63;;;7.07;;
56457;SDS011;42360;42.918;12.366;2023-02-03T05:15:02;11.60;;;7.38;;
56457;SDS011;42360;42.918;12.366;2023-02-03T05:17:28;15.68;;;8.10;;
56457;SDS011;42360;42.918;12.366;2023-02-03T05:19:53;17.92;;;8.85;;
56457;SDS011;42360;42.918;12.366;2023-02-03T05:22:19;17.48;;;8.52;;
56457;SDS011;42360;42.918;12.366;2023-02-03T05:24:44;19.63;;;10.52;;
56457;SDS011;42360;42.918;12.366;2023-02-03T05:27:10;14.77;;;9.52;;
56457;SDS011;42360;42.918;12.366;2023-02-03T05:29:36;18.42;;;9.48;;
56457;SDS011;42360;42.918;12.366;2023-02-03T05:32:01;20.27;;;10.77;;
56457;SDS011;42360;42.918;12.366;2023-02-03T05:34:27;15.90;;;9.77;;
56457;SDS011;42360;42.918;12.366;2023-02-03T05:36:52;12.73;;;9.02;;
56457;SDS011;42360;42.918;12.366;2023-02-03T05:39:18;12.63;;;7.65;;
56457;SDS011;42360;42.918;12.366;2023-02-03T05:41:44;15.32;;;8.95;;
56457;SDS011;42360;42.918;12.366;2023-02-03T05:44:22;14.45;;;9.38;;
56457;SDS011;42360;42.918;12.366;2023-02-03T05:46:49;12.15;;;8.13;;
56457;SDS011;42360;42.918;12.366;2023-02-03T05:49:17;14.48;;;8.02;;
56457;SDS011;42360;42.918;12.366;2023-02-03T05:51:44;16.27;;;9.60;;
56457;SDS011;42360;42.918;12.366;2023-02-03T05:54:10;14.10;;;9.85;;
56457;SDS011;42360;42.918;12.366;2023-02-03T05:56:36;13.75;;;9.77;;
56457;SDS011;42360;42.918;12.366;2023-02-03T05:59:02;15.13;;;9.30;;
56457;SDS011;42360;42.918;12.366;2023-02-03T06:01:28;11.57;;;8.50;;
56457;SDS011;42360;42.918;12.366;2023-02-03T06:03:54;14.55;;;9.02;;
56457;SDS011;42360;42.918;12.366;2023-02-03T06:06:19;9.20;;;7.40;;
56457;SDS011;42360;42.918;12.366;2023-02-03T06:08:45;11.60;;;9.48;;
56457;SDS011;42360;42.918;12.366;2023-02-03T06:11:11;10.77;;;8.07;;
56457;SDS011;42360;42.918;12.366;2023-02-03T06:13:36;10.82;;;8.13;;
56457;SDS011;42360;42.918;12.366;2023-02-03T06:16:02;10.10;;;7.53;;
56457;SDS011;42360;42.918;12.366;2023-02-03T06:18:28;13.77;;;7.40;;
56457;SDS011;42360;42.918;12.366;2023-02-03T06:20:53;7.30;;;4.18;;
56457;SDS011;42360;42.918;12.366;2023-02-03T06:23:19;9.00;;;5.43;;
56457;SDS011;42360;42.918;12.366;2023-02-03T06:25:48;5.38;;;3.58;;
56457;SDS011;42360;42.918;12.366;2023-02-03T06:28:14;9.52;;;3.75;;
56457;SDS011;42360;42.918;12.366;2023-02-03T06:30:40;9.50;;;4.75;;
56457;SDS011;42360;42.918;12.366;2023-02-03T06:33:06;11.85;;;5.50;;
56457;SDS011;42360;42.918;12.366;2023-02-03T06:35:32;11.10;;;5.57;;
56457;SDS011;42360;42.918;12.366;2023-02-03T06:37:57;5.50;;;4.53;;
56457;SDS011;42360;42.918;12.366;2023-02-03T06:40:23;8.10;;;3.75;;
56457;SDS011;42360;42.918;12.366;2023-02-03T06:42:49;16.45;;;8.75;;
56457;SDS011;42360;42.918;12.366;2023-02-03T06:45:15;13.73;;;9.10;;
56457;SDS011;42360;42.918;12.366;2023-02-03T06:47:41;20.05;;;10.77;;
56457;SDS011;42360;42.918;12.366;2023-02-03T06:50:08;6.72;;;5.38;;
56457;SDS011;42360;42.918;12.366;2023-02-03T06:52:35;12.13;;;5.80;;
56457;SDS011;42360;42.918;12.366;2023-02-03T06:55:01;9.98;;;5.85;;
56457;SDS011;42360;42.918;12.366;2023-02-03T06:57:27;9.80;;;6.93;;
56457;SDS011;42360;42.918;12.366;2023-02-03T06:59:52;16.13;;;6.43;;
56457;SDS011;42360;42.918;12.366;2023-02-03T07:02:19;6.57;;;3.78;;
56457;SDS011;42360;42.918;12.366;2023-02-03T07:04:44;17.90;;;10.02;;
56457;SDS011;42360;42.918;12.366;2023-02-03T07:07:12;4.43;;;3.28;;
56457;SDS011;42360;42.918;12.366;2023-02-03T07:09:39;16.35;;;7.00;;
56457;SDS011;42360;42.918;12.366;2023-02-03T07:12:05;9.60;;;6.43;;
56457;SDS011;42360;42.918;12.366;2023-02-03T07:14:31;15.20;;;8.63;;
56457;SDS011;42360;42.918;12.366;2023-02-03T07:17:00;13.35;;;8.30;;
56457;SDS011;42360;42.918;12.366;2023-02-03T07:19:26;10.13;;;6.90;;
56457;SDS011;42360;42.918;12.366;2023-02-03T07:21:52;10.40;;;6.22;;
56457;SDS011;42360;42.918;12.366;2023-02-03T07:24:17;10.95;;;5.95;;
56457;SDS011;42360;42.918;12.366;2023-02-03T07:26:43;13.65;;;6.10;;
56457;SDS011;42360;42.918;12.366;2023-02-03T07:29:09;10.30;;;6.75;;
56457;SDS011;42360;42.918;12.366;2023-02-03T07:31:34;8.60;;;5.82;;
56457;SDS011;42360;42.918;12.366;2023-02-03T07:34:00;8.35;;;5.75;;
56457;SDS011;42360;42.918;12.366;2023-02-03T07:36:26;10.85;;;6.35;;
56457;SDS011;42360;42.918;12.366;2023-02-03T07:38:53;9.15;;;6.05;;
56457;SDS011;42360;42.918;12.366;2023-02-03T07:41:19;10.32;;;5.75;;
56457;SDS011;42360;42.918;12.366;2023-02-03T07:43:45;10.30;;;6.57;;
56457;SDS011;42360;42.918;12.366;2023-02-03T07:46:11;9.68;;;6.38;;
56457;SDS011;42360;42.918;12.366;2023-02-03T07:48:37;11.55;;;7.13;;
56457;SDS011;42360;42.918;12.366;2023-02-03T07:51:02;13.90;;;7.57;;
56457;SDS011;42360;42.918;12.366;2023-02-03T07:53:28;11.45;;;7.30;;
56457;SDS011;42360;42.918;12.366;2023-02-03T07:55:54;15.10;;;9.40;;
56457;SDS011;42360;42.918;12.366;2023-02-03T07:58:24;15.57;;;8.00;;
56457;SDS011;42360;42.918;12.366;2023-02-03T08:00:49;16.05;;;8.13;;
56457;SDS011;42360;42.918;12.366;2023-02-03T08:03:15;16.35;;;11.38;;
56457;SDS011;42360;42.918;12.366;2023-02-03T08:05:40;17.90;;;9.65;;
56457;SDS011;42360;42.918;12.366;2023-02-03T08:08:06;15.40;;;8.48;;
56457;SDS011;42360;42.918;12.366;2023-02-03T08:10:31;13.65;;;8.32;;
56457;SDS011;42360;42.918;12.366;2023-02-03T08:12:57;19.80;;;9.15;;
56457;SDS011;42360;42.918;12.366;2023-02-03T08:15:22;15.95;;;8.50;;
56457;SDS011;42360;42.918;12.366;2023-02-03T08:17:48;19.30;;;9.27;;
56457;SDS011;42360;42.918;12.366;2023-02-03T08:20:14;15.77;;;9.48;;
56457;SDS011;42360;42.918;12.366;2023-02-03T08:22:41;20.38;;;10.25;;
56457;SDS011;42360;42.918;12.366;2023-02-03T08:25:06;13.60;;;8.63;;
56457;SDS011;42360;42.918;12.366;2023-02-03T08:27:32;12.85;;;7.53;;
56457;SDS011;42360;42.918;12.366;2023-02-03T08:29:58;15.10;;;10.48;;
56457;SDS011;42360;42.918;12.366;2023-02-03T08:32:24;20.52;;;10.98;;
56457;SDS011;42360;42.918;12.366;2023-02-03T08:34:50;19.17;;;9.23;;
56457;SDS011;42360;42.918;12.366;2023-02-03T08:37:16;19.85;;;10.75;;
56457;SDS011;42360;42.918;12.366;2023-02-03T08:39:43;13.55;;;7.65;;
56457;SDS011;42360;42.918;12.366;2023-02-03T08:42:09;20.25;;;9.35;;
56457;SDS011;42360;42.918;12.366;2023-02-03T08:44:35;20.83;;;11.10;;
56457;SDS011;42360;42.918;12.366;2023-02-03T08:47:03;21.40;;;10.10;;
56457;SDS011;42360;42.918;12.366;2023-02-03T08:49:29;16.33;;;7.65;;
56457;SDS011;42360;42.918;12.366;2023-02-03T08:51:55;12.27;;;6.85;;
56457;SDS011;42360;42.918;12.366;2023-02-03T08:54:22;17.33;;;8.43;;
56457;SDS011;42360;42.918;12.366;2023-02-03T08:56:48;13.10;;;9.63;;
56457;SDS011;42360;42.918;12.366;2023-02-03T08:59:14;19.85;;;11.63;;
56457;SDS011;42360;42.918;12.366;2023-02-03T09:01:39;19.48;;;11.38;;
56457;SDS011;42360;42.918;12.366;2023-02-03T09:04:08;19.55;;;11.07;;
56457;SDS011;42360;42.918;12.366;2023-02-03T09:06:34;20.65;;;10.95;;
56457;SDS011;42360;42.918;12.366;2023-02-03T09:09:01;16.58;;;10.52;;
56457;SDS011;42360;42.918;12.366;2023-02-03T09:11:26;19.67;;;11.40;;
56457;SDS011;42360;42.918;12.366;2023-02-03T09:13:52;20.83;;;10.93;;
56457;SDS011;42360;42.918;12.366;2023-02-03T09:16:18;21.23;;;11.38;;
56457;SDS011;42360;42.918;12.366;2023-02-03T09:18:47;18.90;;;12.10;;
56457;SDS011;42360;42.918;12.366;2023-02-03T09:21:13;20.40;;;11.57;;
56457;SDS011;42360;42.918;12.366;2023-02-03T09:23:41;18.02;;;9.98;;
56457;SDS011;42360;42.918;12.366;2023-02-03T09:26:08;21.45;;;11.80;;
56457;SDS011;42360;42.918;12.366;2023-02-03T09:28:36;19.15;;;10.85;;
56457;SDS011;42360;42.918;12.366;2023-02-03T09:31:02;24.48;;;11.90;;
56457;SDS011;42360;42.918;12.366;2023-02-03T09:33:32;22.58;;;12.05;;
56457;SDS011;42360;42.918;12.366;2023-02-03T09:35:58;17.95;;;10.23;;
56457;SDS011;42360;42.918;12.366;2023-02-03T09:38:24;19.85;;;11.90;;
56457;SDS011;42360;42.918;12.366;2023-02-03T09:40:52;25.58;;;11.07;;
56457;SDS011;42360;42.918;12.366;2023-02-03T09:43:33;19.80;;;11.18;;
56457;SDS011;42360;42.918;12.366;2023-02-03T09:46:14;19.63;;;12.38;;
56457;SDS011;42360;42.918;12.366;2023-02-03T09:48:45;20.63;;;14.38;;
56457;SDS011;42360;42.918;12.366;2023-02-03T09:51:18;26.35;;;16.98;;
56457;SDS011;42360;42.918;12.366;2023-02-03T09:53:51;28.10;;;15.85;;
56457;SDS011;42360;42.918;12.366;2023-02-03T09:56:33;21.23;;;12.07;;
56457;SDS011;42360;42.918;12.366;2023-02-03T09:59:00;18.23;;;10.55;;
56457;SDS011;42360;42.918;12.366;2023-02-03T10:01:38;12.43;;;9.85;;
56457;SDS011;42360;42.918;12.366;2023-02-03T10:04:18;11.20;;;6.88;;
56457;SDS011;42360;42.918;12.366;2023-02-03T10:06:52;17.10;;;9.95;;
56457;SDS011;42360;42.918;12.366;2023-02-03T10:17:32;23.42;;;13.85;;
56457;SDS011;42360;42.918;12.366;2023-02-03T10:22:31;26.05;;;15.30;;
56457;SDS011;42360;42.918;12.366;2023-02-03T10:27:42;23.25;;;12.70;;
56457;SDS011;42360;42.918;12.366;2023-02-03T10:30:21;32.72;;;16.23;;
56457;SDS011;42360;42.918;12.366;2023-02-03T10:32:56;20.98;;;10.95;;
56457;SDS011;42360;42.918;12.366;2023-02-03T10:35:29;21.27;;;11.40;;
56457;SDS011;42360;42.918;12.366;2023-02-03T10:37:58;23.55;;;12.90;;
56457;SDS011;42360;42.918;12.366;2023-02-03T10:40:24;26.45;;;14.65;;
56457;SDS011;42360;42.918;12.366;2023-02-03T10:42:53;24.55;;;12.88;;
56457;SDS011;42360;42.918;12.366;2023-02-03T10:45:38;17.83;;;10.25;;
56457;SDS011;42360;42.918;12.366;2023-02-03T10:48:04;18.58;;;8.57;;
56457;SDS011;42360;42.918;12.366;2023-02-03T10:50:34;20.00;;;8.52;;
56457;SDS011;42360;42.918;12.366;2023-02-03T10:53:20;5.35;;;4.95;;
56457;SDS011;42360;42.918;12.366;2023-02-03T10:58:56;13.77;;;9.10;;
56457;SDS011;42360;42.918;12.366;2023-02-03T11:01:26;18.65;;;11.70;;
56457;SDS011;42360;42.918;12.366;2023-02-03T11:04:03;20.30;;;10.30;;
56457;SDS011;42360;42.918;12.366;2023-02-03T11:06:30;22.08;;;13.23;;
56457;SDS011;42360;42.918;12.366;2023-02-03T11:08:57;25.27;;;12.43;;
56457;SDS011;42360;42.918;12.366;2023-02-03T11:11:24;24.70;;;12.52;;
56457;SDS011;42360;42.918;12.366;2023-02-03T11:13:52;16.88;;;9.40;;
56457;SDS011;42360;42.918;12.366;2023-02-03T11:16:27;20.40;;;12.05;;
56457;SDS011;42360;42.918;12.366;2023-02-03T11:19:00;21.50;;;12.38;;
56457;SDS011;42360;42.918;12.366;2023-02-03T11:26:27;19.88;;;11.45;;
56457;SDS011;42360;42.918;12.366;2023-02-03T11:28:55;28.98;;;15.82;;
56457;SDS011;42360;42.918;12.366;2023-02-03T11:31:23;20.77;;;12.23;;
56457;SDS011;42360;42.918;12.366;2023-02-03T11:33:57;21.33;;;12.67;;
56457;SDS011;42360;42.918;12.366;2023-02-03T11:36:25;17.20;;;11.98;;
56457;SDS011;42360;42.918;12.366;2023-02-03T11:38:52;19.52;;;10.93;;
56457;SDS011;42360;42.918;12.366;2023-02-03T11:44:02;14.93;;;9.60;;
56457;SDS011;42360;42.918;12.366;2023-02-03T11:46:38;18.60;;;11.80;;
56457;SDS011;42360;42.918;12.366;2023-02-03T11:49:12;18.65;;;9.60;;
56457;SDS011;42360;42.918;12.366;2023-02-03T11:54:49;14.65;;;9.88;;
56457;SDS011;42360;42.918;12.366;2023-02-03T12:08:03;16.67;;;11.88;;
56457;SDS011;42360;42.918;12.366;2023-02-03T12:10:46;15.90;;;10.27;;
56457;SDS011;42360;42.918;12.366;2023-02-03T12:13:29;14.93;;;8.63;;
56457;SDS011;42360;42.918;12.366;2023-02-03T12:16:06;13.13;;;7.13;;
56457;SDS011;42360;42.918;12.366;2023-02-03T12:22:02;55.15;;;28.80;;
56457;SDS011;42360;42.918;12.366;2023-02-03T12:24:37;17.48;;;9.90;;
56457;SDS011;42360;42.918;12.366;2023-02-03T12:29:46;10.75;;;7.57;;
56457;SDS011;42360;42.918;12.366;2023-02-03T12:40:42;8.38;;;6.55;;
56457;SDS011;42360;42.918;12.366;2023-02-03T12:48:11;8.75;;;5.55;;
56457;SDS011;42360;42.918;12.366;2023-02-03T12:50:41;7.88;;;5.60;;
56457;SDS011;42360;42.918;12.366;2023-02-03T12:53:16;11.07;;;6.25;;
56457;SDS011;42360;42.918;12.366;2023-02-03T12:58:52;9.82;;;7.47;;
56457;SDS011;42360;42.918;12.366;2023-02-03T13:01:54;10.85;;;8.35;;
56457;SDS011;42360;42.918;12.366;2023-02-03T13:07:36;11.65;;;7.68;;
56457;SDS011;42360;42.918;12.366;2023-02-03T13:10:05;14.50;;;8.93;;
56457;SDS011;42360;42.918;12.366;2023-02-03T13:12:41;12.32;;;9.77;;
56457;SDS011;42360;42.918;12.366;2023-02-03T13:17:52;11.48;;;7.80;;
56457;SDS011;42360;42.918;12.366;2023-02-03T13:20:21;12.90;;;7.68;;
56457;SDS011;42360;42.918;12.366;2023-02-03T13:22:53;9.75;;;7.22;;
56457;SDS011;42360;42.918;12.366;2023-02-03T13:25:26;10.90;;;8.95;;
56457;SDS011;42360;42.918;12.366;2023-02-03T13:30:45;10.52;;;8.68;;
56457;SDS011;42360;42.918;12.366;2023-02-03T13:41:41;11.50;;;7.30;;
56457;SDS011;42360;42.918;12.366;2023-02-03T13:44:14;8.27;;;6.13;;
56457;SDS011;42360;42.918;12.366;2023-02-03T13:46:45;12.27;;;9.73;;
56457;SDS011;42360;42.918;12.366;2023-02-03T13:49:19;13.13;;;10.48;;
56457;SDS011;42360;42.918;12.366;2023-02-03T13:51:51;13.25;;;8.90;;
56457;SDS011;42360;42.918;12.366;2023-02-03T13:57:19;9.95;;;8.23;;
56457;SDS011;42360;42.918;12.366;2023-02-03T13:59:46;9.48;;;6.65;;
56457;SDS011;42360;42.918;12.366;2023-02-03T14:04:51;12.85;;;9.70;;
56457;SDS011;42360;42.918;12.366;2023-02-03T14:07:32;9.80;;;7.22;;
56457;SDS011;42360;42.918;12.366;2023-02-03T14:17:53;9.48;;;7.13;;
56457;SDS011;42360;42.918;12.366;2023-02-03T14:25:28;8.18;;;6.70;;
56457;SDS011;42360;42.918;12.366;2023-02-03T14:27:58;7.85;;;5.85;;
56457;SDS011;42360;42.918;12.366;2023-02-03T14:30:25;9.60;;;8.43;;
56457;SDS011;42360;42.918;12.366;2023-02-03T14:32:54;11.45;;;8.55;;
56457;SDS011;42360;42.918;12.366;2023-02-03T14:37:54;8.13;;;5.75;;
56457;SDS011;42360;42.918;12.366;2023-02-03T14:43:11;7.97;;;5.85;;
56457;SDS011;42360;42.918;12.366;2023-02-03T14:51:14;8.48;;;6.35;;
56457;SDS011;42360;42.918;12.366;2023-02-03T14:58:54;9.27;;;7.28;;
56457;SDS011;42360;42.918;12.366;2023-02-03T15:06:38;7.32;;;5.05;;
56457;SDS011;42360;42.918;12.366;2023-02-03T15:12:23;6.55;;;4.20;;
56457;SDS011;42360;42.918;12.366;2023-02-03T15:14:50;7.47;;;5.10;;
56457;SDS011;42360;42.918;12.366;2023-02-03T15:17:26;9.40;;;5.10;;
56457;SDS011;42360;42.918;12.366;2023-02-03T15:19:53;8.68;;;5.72;;
56457;SDS011;42360;42.918;12.366;2023-02-03T15:22:26;6.53;;;5.13;;
56457;SDS011;42360;42.918;12.366;2023-02-03T15:24:54;9.65;;;5.60;;
56457;SDS011;42360;42.918;12.366;2023-02-03T15:29:56;9.85;;;6.18;;
56457;SDS011;42360;42.918;12.366;2023-02-03T15:32:28;9.00;;;5.47;;
56457;SDS011;42360;42.918;12.366;2023-02-03T15:34:57;8.07;;;4.85;;
56457;SDS011;42360;42.918;12.366;2023-02-03T15:45:07;7.57;;;5.00;;
56457;SDS011;42360;42.918;12.366;2023-02-03T15:47:54;5.93;;;4.50;;
56457;SDS011;42360;42.918;12.366;2023-02-03T15:50:35;6.18;;;4.55;;
56457;SDS011;42360;42.918;12.366;2023-02-03T15:53:23;8.93;;;5.00;;
56457;SDS011;42360;42.918;12.366;2023-02-03T15:55:55;9.20;;;4.47;;
56457;SDS011;42360;42.918;12.366;2023-02-03T15:58:24;8.02;;;5.60;;
56457;SDS011;42360;42.918;12.366;2023-02-03T16:00:52;6.18;;;4.50;;
56457;SDS011;42360;42.918;12.366;2023-02-03T16:03:32;7.05;;;4.80;;
56457;SDS011;42360;42.918;12.366;2023-02-03T16:06:44;6.35;;;5.43;;
56457;SDS011;42360;42.918;12.366;2023-02-03T16:08:47;9.52;;;5.53;;
56457;SDS011;42360;42.918;12.366;2023-02-03T16:13:53;9.27;;;6.03;;
56457;SDS011;42360;42.918;12.366;2023-02-03T16:16:37;10.70;;;6.33;;
56457;SDS011;42360;42.918;12.366;2023-02-03T16:19:14;10.23;;;6.72;;
56457;SDS011;42360;42.918;12.366;2023-02-03T16:27:18;10.10;;;7.20;;
56457;SDS011;42360;42.918;12.366;2023-02-03T16:29:50;11.13;;;8.55;;
56457;SDS011;42360;42.918;12.366;2023-02-03T16:33:11;14.57;;;8.48;;
56457;SDS011;42360;42.918;12.366;2023-02-03T16:35:58;12.85;;;7.95;;
56457;SDS011;42360;42.918;12.366;2023-02-03T16:38:45;14.77;;;8.38;;
56457;SDS011;42360;42.918;12.366;2023-02-03T16:41:29;15.43;;;8.77;;
56457;SDS011;42360;42.918;12.366;2023-02-03T16:44:14;17.38;;;9.35;;
56457;SDS011;42360;42.918;12.366;2023-02-03T16:46:58;12.98;;;8.88;;
56457;SDS011;42360;42.918;12.366;2023-02-03T16:49:42;10.77;;;7.03;;
56457;SDS011;42360;42.918;12.366;2023-02-03T16:52:26;13.30;;;8.15;;
56457;SDS011;42360;42.918;12.366;2023-02-03T16:54:51;13.77;;;9.00;;
56457;SDS011;42360;42.918;12.366;2023-02-03T16:57:17;19.75;;;9.68;;
56457;SDS011;42360;42.918;12.366;2023-02-03T16:59:43;14.60;;;9.18;;
56457;SDS011;42360;42.918;12.366;2023-02-03T17:02:09;15.27;;;9.25;;
56457;SDS011;42360;42.918;12.366;2023-02-03T17:04:35;20.25;;;11.05;;
56457;SDS011;42360;42.918;12.366;2023-02-03T17:07:00;24.40;;;15.32;;
56457;SDS011;42360;42.918;12.366;2023-02-03T17:09:29;26.98;;;16.33;;
56457;SDS011;42360;42.918;12.366;2023-02-03T17:11:59;20.05;;;12.95;;
56457;SDS011;42360;42.918;12.366;2023-02-03T17:14:25;14.55;;;9.60;;